createdAt,value
2017-08-28T00:02:19.534Z,54.80
2017-08-28T00:04:45.687Z,55.30
2017-08-28T00:07:11.883Z,55.20
2017-08-28T00:09:38.024Z,55.70
2017-08-28T00:12:04.182Z,55.80
2017-08-28T00:14:30.306Z,55.50
2017-08-28T00:16:56.478Z,55.10
2017-08-28T00:19:22.595Z,55.00
2017-08-28T00:21:48.734Z,55.70
2017-08-28T00:24:14.882Z,55.80
2017-08-28T00:26:41.000Z,54.80
2017-08-28T00:29:07.143Z,55.40
2017-08-28T00:31:33.284Z,55.80
2017-08-28T00:33:59.426Z,54.70
2017-08-28T00:36:25.584Z,55.20
2017-08-28T00:38:51.780Z,54.00
2017-08-28T00:41:17.974Z,54.20
2017-08-28T00:43:44.127Z,54.00
2017-08-28T00:46:10.293Z,54.40
2017-08-28T00:48:36.458Z,54.00
2017-08-28T00:51:02.611Z,53.30
2017-08-28T00:53:28.778Z,53.40
2017-08-28T00:55:54.940Z,53.10
2017-08-28T00:58:21.855Z,53.10
2017-08-28T01:00:48.082Z,52.90
2017-08-28T01:03:14.227Z,53.00
2017-08-28T01:05:40.375Z,53.40
2017-08-28T01:08:06.565Z,52.80
2017-08-28T01:10:32.738Z,52.60
2017-08-28T01:12:58.881Z,53.00
2017-08-28T01:15:25.046Z,53.00
2017-08-28T01:17:51.199Z,53.50
2017-08-28T01:20:17.427Z,53.10
2017-08-28T01:22:43.585Z,53.10
2017-08-28T01:25:09.752Z,53.50
2017-08-28T01:27:35.911Z,53.50
2017-08-28T01:30:02.099Z,53.10
2017-08-28T01:32:28.235Z,53.20
2017-08-28T01:34:54.380Z,53.40
2017-08-28T01:37:20.504Z,53.10
2017-08-28T01:39:46.639Z,53.30
2017-08-28T01:42:12.755Z,52.70
2017-08-28T01:44:38.892Z,52.90
2017-08-28T01:47:05.015Z,53.40
2017-08-28T01:49:31.191Z,53.10
2017-08-28T01:51:57.336Z,53.60
2017-08-28T01:54:23.508Z,53.80
2017-08-28T01:56:49.665Z,53.20
2017-08-28T01:59:15.831Z,53.10
2017-08-28T02:01:41.991Z,53.20
2017-08-28T02:04:08.156Z,54.20
2017-08-28T02:06:34.367Z,53.50
2017-08-28T02:09:00.538Z,54.00
2017-08-28T02:11:26.748Z,53.80
2017-08-28T02:13:52.903Z,53.70
2017-08-28T02:16:19.070Z,54.10
2017-08-28T02:18:45.244Z,54.50
2017-08-28T02:21:11.438Z,55.00
2017-08-28T02:23:37.599Z,55.40
2017-08-28T02:26:03.780Z,55.30
2017-08-28T02:28:29.951Z,54.70
2017-08-28T02:30:56.149Z,54.80
2017-08-28T02:33:22.304Z,54.40
2017-08-28T02:35:48.492Z,55.00
2017-08-28T02:38:14.668Z,54.80
2017-08-28T02:40:40.855Z,55.20
2017-08-28T02:43:07.040Z,54.70
2017-08-28T02:45:33.199Z,55.10
2017-08-28T02:47:59.358Z,55.00
2017-08-28T02:50:25.503Z,54.50
2017-08-28T02:52:51.684Z,54.60
2017-08-28T02:55:17.863Z,54.90
2017-08-28T02:57:44.050Z,54.70
2017-08-28T03:00:10.271Z,54.90
2017-08-28T03:02:36.436Z,55.00
2017-08-28T03:05:02.636Z,55.00
2017-08-28T03:07:28.804Z,55.20
2017-08-28T03:09:54.939Z,55.50
2017-08-28T03:12:21.158Z,55.20
2017-08-28T03:14:47.308Z,55.20
2017-08-28T03:17:13.487Z,55.00
2017-08-28T03:19:39.627Z,55.00
2017-08-28T03:22:05.798Z,55.30
2017-08-28T03:24:31.971Z,55.90
2017-08-28T03:26:58.143Z,55.10
2017-08-28T03:29:24.283Z,55.50
2017-08-28T03:31:50.470Z,56.00
2017-08-28T03:34:16.650Z,56.20
2017-08-28T03:36:42.873Z,56.70
2017-08-28T03:39:09.061Z,56.70
2017-08-28T03:41:35.243Z,56.50
2017-08-28T03:44:01.439Z,55.80
2017-08-28T03:46:27.627Z,56.00
2017-08-28T03:48:53.844Z,56.30
2017-08-28T03:51:20.047Z,56.10
2017-08-28T03:53:46.233Z,56.20
2017-08-28T03:56:12.436Z,56.30
2017-08-28T03:58:38.631Z,56.20
2017-08-28T04:01:04.815Z,56.50
2017-08-28T04:03:31.051Z,56.50
2017-08-28T04:05:57.239Z,56.20
2017-08-28T04:08:23.469Z,56.60
2017-08-28T04:10:49.671Z,56.70
2017-08-28T04:13:15.851Z,56.70
2017-08-28T04:15:42.025Z,57.10
2017-08-28T04:18:08.202Z,57.30
2017-08-28T04:20:34.380Z,57.50
2017-08-28T04:23:00.581Z,57.70
2017-08-28T04:25:26.773Z,57.80
2017-08-28T04:27:52.955Z,57.80
2017-08-28T04:30:19.155Z,57.60
2017-08-28T04:32:45.315Z,57.70
2017-08-28T04:35:11.520Z,57.30
2017-08-28T04:37:37.698Z,57.10
2017-08-28T04:40:03.905Z,56.90
2017-08-28T04:42:30.063Z,57.20
2017-08-28T04:44:56.251Z,57.60
2017-08-28T04:47:22.818Z,56.90
2017-08-28T04:49:49.020Z,57.00
2017-08-28T04:52:15.151Z,56.80
2017-08-28T04:54:41.339Z,57.20
2017-08-28T04:57:07.483Z,57.00
2017-08-28T04:59:33.670Z,56.70
2017-08-28T05:01:59.844Z,57.20
2017-08-28T05:04:26.032Z,56.90
2017-08-28T05:06:52.199Z,56.90
2017-08-28T05:09:18.389Z,56.90
2017-08-28T05:11:44.527Z,56.20
2017-08-28T05:14:10.679Z,56.70
2017-08-28T05:16:36.842Z,56.60
2017-08-28T05:19:03.020Z,57.50
2017-08-28T05:21:29.195Z,56.20
2017-08-28T05:23:55.351Z,56.70
2017-08-28T05:26:21.496Z,56.20
2017-08-28T05:28:47.657Z,56.20
2017-08-28T05:31:13.816Z,55.70
2017-08-28T05:33:40.028Z,56.00
2017-08-28T05:36:06.194Z,56.50
2017-08-28T05:38:32.654Z,56.10
2017-08-28T05:40:58.869Z,56.40
2017-08-28T05:43:25.485Z,55.90
2017-08-28T05:45:51.690Z,56.50
2017-08-28T05:48:17.892Z,55.90
2017-08-28T05:50:44.500Z,56.10
2017-08-28T05:53:10.651Z,58.10
2017-08-28T05:55:36.893Z,57.10
2017-08-28T05:58:03.081Z,56.90
2017-08-28T06:00:29.267Z,57.20
2017-08-28T06:02:55.424Z,56.60
2017-08-28T06:05:21.589Z,57.00
2017-08-28T06:07:47.746Z,56.90
2017-08-28T06:10:13.911Z,57.00
2017-08-28T06:12:40.066Z,57.30
2017-08-28T06:15:06.194Z,56.80
2017-08-28T06:17:32.358Z,57.40
2017-08-28T06:19:58.497Z,57.50
2017-08-28T06:22:24.654Z,56.80
2017-08-28T06:24:50.807Z,56.50
2017-08-28T06:27:16.987Z,56.50
2017-08-28T06:29:43.155Z,56.20
2017-08-28T06:32:09.311Z,56.60
2017-08-28T06:34:35.434Z,55.80
2017-08-28T06:37:01.598Z,56.20
2017-08-28T06:39:27.739Z,55.70
2017-08-28T06:41:53.894Z,56.10
2017-08-28T06:44:20.019Z,55.80
2017-08-28T06:46:46.175Z,55.50
2017-08-28T06:49:12.323Z,55.10
2017-08-28T06:51:38.458Z,54.80
2017-08-28T06:54:04.609Z,55.10
2017-08-28T06:56:30.764Z,53.80
2017-08-28T06:58:56.923Z,53.90
2017-08-28T07:01:23.069Z,53.50
2017-08-28T07:03:49.341Z,54.00
2017-08-28T07:06:16.256Z,53.70
2017-08-28T07:08:42.434Z,53.60
2017-08-28T07:11:08.628Z,53.30
2017-08-28T07:13:34.774Z,52.80
2017-08-28T07:16:00.916Z,53.20
2017-08-28T07:18:27.060Z,52.50
2017-08-28T07:20:53.196Z,52.40
2017-08-28T07:23:19.350Z,51.00
2017-08-28T07:25:45.505Z,51.00
2017-08-28T07:28:11.669Z,51.10
2017-08-28T07:30:37.802Z,51.10
2017-08-28T07:33:03.968Z,51.20
2017-08-28T07:35:30.103Z,51.20
2017-08-28T07:37:56.259Z,50.90
2017-08-28T07:40:22.391Z,50.80
2017-08-28T07:42:48.554Z,50.30
2017-08-28T07:45:14.695Z,50.70
2017-08-28T07:47:40.838Z,51.50
2017-08-28T07:50:07.032Z,50.90
2017-08-28T07:52:33.246Z,50.50
2017-08-28T07:54:59.485Z,50.10
2017-08-28T07:57:25.649Z,50.10
2017-08-28T07:59:51.839Z,49.30
2017-08-28T08:02:18.008Z,50.20
2017-08-28T08:04:44.161Z,50.50
2017-08-28T08:07:10.290Z,50.80
2017-08-28T08:09:36.443Z,49.80
2017-08-28T08:12:02.602Z,50.00
2017-08-28T08:14:28.746Z,49.30
2017-08-28T08:16:54.932Z,49.30
2017-08-28T08:19:21.166Z,49.30
2017-08-28T08:21:47.755Z,49.70
2017-08-28T08:24:13.956Z,48.80
2017-08-28T08:26:40.107Z,48.70
2017-08-28T08:29:06.274Z,48.40
2017-08-28T08:31:32.432Z,48.20
2017-08-28T08:34:04.758Z,48.20
2017-08-28T08:36:30.910Z,47.60
2017-08-28T08:38:57.040Z,48.10
2017-08-28T08:41:23.235Z,47.40
2017-08-28T08:43:49.390Z,47.10
2017-08-28T08:46:15.611Z,47.30
2017-08-28T08:48:41.751Z,47.50
2017-08-28T08:51:07.887Z,46.50
2017-08-28T08:53:34.076Z,47.20
2017-08-28T08:56:00.242Z,48.00
2017-08-28T08:58:26.383Z,46.50
2017-08-28T09:00:52.552Z,46.50
2017-08-28T09:03:24.747Z,45.30
2017-08-28T09:05:50.941Z,46.10
2017-08-28T09:08:17.124Z,46.10
2017-08-28T09:10:43.270Z,46.50
2017-08-28T09:13:09.433Z,46.10
2017-08-28T09:15:35.593Z,45.30
2017-08-28T09:18:01.722Z,45.70
2017-08-28T09:20:27.890Z,46.20
2017-08-28T09:22:54.036Z,46.10
2017-08-28T09:25:20.174Z,45.50
2017-08-28T09:27:46.345Z,45.50
2017-08-28T09:30:12.494Z,45.50
2017-08-28T09:32:38.637Z,46.00
2017-08-28T09:35:04.763Z,44.10
2017-08-28T09:37:30.916Z,45.20
2017-08-28T09:39:57.055Z,46.70
2017-08-28T09:42:23.243Z,45.20
2017-08-28T09:44:49.424Z,44.50
2017-08-28T09:47:15.614Z,45.30
2017-08-28T09:49:41.775Z,44.10
2017-08-28T09:52:07.932Z,44.10
2017-08-28T09:54:34.114Z,44.20
2017-08-28T09:57:00.267Z,44.10
2017-08-28T09:59:26.435Z,44.90
2017-08-28T10:01:52.599Z,44.30
2017-08-28T10:04:18.731Z,44.30
2017-08-28T10:06:44.868Z,44.40
2017-08-28T10:09:11.039Z,43.80
2017-08-28T10:11:37.177Z,43.60
2017-08-28T10:14:04.078Z,44.70
2017-08-28T10:16:30.274Z,44.70
2017-08-28T10:18:56.434Z,42.10
2017-08-28T10:21:22.707Z,43.60
2017-08-28T10:23:49.114Z,43.80
2017-08-28T10:26:15.332Z,44.10
2017-08-28T10:28:41.539Z,43.60
2017-08-28T10:31:07.670Z,41.60
2017-08-28T10:33:33.822Z,42.40
2017-08-28T10:35:59.958Z,42.00
2017-08-28T10:38:26.106Z,43.10
2017-08-28T10:40:52.242Z,42.50
2017-08-28T10:43:18.442Z,41.80
2017-08-28T10:45:44.933Z,42.50
2017-08-28T10:48:11.136Z,42.20
2017-08-28T10:50:38.326Z,42.00
2017-08-28T10:53:09.443Z,40.80
2017-08-28T10:55:35.627Z,41.10
2017-08-28T10:58:02.116Z,41.60
2017-08-28T11:00:28.308Z,41.50
2017-08-28T11:02:54.470Z,40.50
2017-08-28T11:05:20.795Z,40.50
2017-08-28T11:07:46.943Z,40.00
2017-08-28T11:10:13.515Z,40.90
2017-08-28T11:12:39.686Z,40.30
2017-08-28T11:15:05.904Z,36.80
2017-08-28T11:17:32.048Z,39.60
2017-08-28T11:19:58.227Z,36.60
2017-08-28T11:22:24.363Z,38.00
2017-08-28T11:24:50.523Z,37.90
2017-08-28T11:27:16.674Z,36.50
2017-08-28T11:29:43.179Z,36.90
2017-08-28T11:32:09.343Z,36.60
2017-08-28T11:34:35.615Z,36.60
2017-08-28T11:37:01.780Z,35.00
2017-08-28T11:39:27.967Z,36.60
2017-08-28T11:41:54.136Z,36.80
2017-08-28T11:44:20.338Z,36.40
2017-08-28T11:46:46.484Z,34.70
2017-08-28T11:49:12.647Z,33.10
2017-08-28T11:51:38.786Z,35.00
2017-08-28T11:54:04.959Z,34.60
2017-08-28T11:56:31.122Z,35.00
2017-08-28T11:58:57.318Z,35.00
2017-08-28T12:01:23.474Z,33.50
2017-08-28T12:03:49.587Z,36.30
2017-08-28T12:06:15.754Z,34.40
2017-08-28T12:08:41.888Z,33.30
2017-08-28T12:11:08.047Z,32.70
2017-08-28T12:13:34.201Z,32.50
2017-08-28T12:16:00.377Z,32.40
2017-08-28T12:18:26.514Z,31.70
2017-08-28T12:20:52.678Z,31.10
2017-08-28T12:23:18.819Z,29.90
2017-08-28T12:25:45.027Z,30.00
2017-08-28T12:28:11.186Z,28.60
2017-08-28T12:30:37.354Z,28.80
2017-08-28T12:33:03.525Z,28.80
2017-08-28T12:35:29.647Z,27.10
2017-08-28T12:37:55.814Z,27.40
2017-08-28T12:40:21.955Z,27.10
2017-08-28T12:42:48.119Z,27.00
2017-08-28T12:45:14.295Z,27.80
2017-08-28T12:47:40.468Z,27.10
2017-08-28T12:50:06.608Z,28.00
2017-08-28T12:52:32.756Z,26.00
2017-08-28T12:54:58.913Z,26.80
2017-08-28T12:57:25.069Z,26.20
2017-08-28T12:59:51.205Z,26.00
2017-08-28T13:02:17.352Z,25.50
2017-08-28T13:04:43.486Z,25.30
2017-08-28T13:07:09.666Z,25.60
2017-08-28T13:09:35.792Z,25.00
2017-08-28T13:12:01.970Z,26.20
2017-08-28T13:14:28.103Z,26.10
2017-08-28T13:16:54.254Z,26.10
2017-08-28T13:19:20.414Z,25.80
2017-08-28T13:21:46.543Z,26.00
2017-08-28T13:24:12.716Z,25.00
2017-08-28T13:26:38.854Z,26.90
2017-08-28T13:29:05.058Z,26.60
2017-08-28T13:31:31.178Z,26.70
2017-08-28T13:33:57.334Z,27.60
2017-08-28T13:36:23.463Z,27.90
2017-08-28T13:38:49.618Z,27.70
2017-08-28T13:41:15.746Z,27.60
2017-08-28T13:43:41.882Z,28.50
2017-08-28T13:46:08.009Z,28.50
2017-08-28T13:48:34.154Z,28.50
2017-08-28T13:51:00.282Z,28.40
2017-08-28T13:53:26.427Z,28.30
2017-08-28T13:55:52.574Z,29.40
2017-08-28T13:58:18.736Z,30.20
2017-08-28T14:00:44.867Z,30.30
2017-08-28T14:03:11.011Z,29.70
2017-08-28T14:05:37.147Z,30.50
2017-08-28T14:08:03.322Z,30.40
2017-08-28T14:10:29.466Z,30.30
2017-08-28T14:12:55.630Z,30.50
2017-08-28T14:15:21.774Z,30.80
2017-08-28T14:17:47.894Z,30.90
2017-08-28T14:20:14.018Z,29.90
2017-08-28T14:22:40.136Z,30.90
2017-08-28T14:25:06.280Z,30.00
2017-08-28T14:27:32.424Z,31.70
2017-08-28T14:29:58.554Z,32.10
2017-08-28T14:32:24.670Z,31.70
2017-08-28T14:34:50.814Z,32.20
2017-08-28T14:37:16.939Z,31.60
2017-08-28T14:39:43.067Z,31.80
2017-08-28T14:42:09.182Z,32.10
2017-08-28T14:44:35.340Z,32.40
2017-08-28T14:47:01.538Z,32.80
2017-08-28T14:49:27.679Z,33.20
2017-08-28T14:51:53.795Z,32.00
2017-08-28T14:54:19.955Z,32.80
2017-08-28T14:56:46.085Z,32.40
2017-08-28T14:59:12.250Z,32.90
2017-08-28T15:01:38.394Z,33.00
2017-08-28T15:04:04.520Z,32.80
2017-08-28T15:06:30.667Z,33.00
2017-08-28T15:08:56.799Z,33.30
2017-08-28T15:11:22.998Z,33.80
2017-08-28T15:13:49.138Z,33.60
2017-08-28T15:16:15.286Z,33.20
2017-08-28T15:18:41.406Z,33.20
2017-08-28T15:21:07.543Z,32.50
2017-08-28T15:23:33.677Z,33.10
2017-08-28T15:25:59.815Z,33.20
2017-08-28T15:28:25.948Z,33.90
2017-08-28T15:30:52.086Z,32.30
2017-08-28T15:33:18.226Z,32.80
2017-08-28T15:35:44.374Z,33.00
2017-08-28T15:38:10.514Z,33.80
2017-08-28T15:40:36.660Z,34.90
2017-08-28T15:43:02.799Z,34.00
2017-08-28T15:45:28.935Z,34.30
2017-08-28T15:47:55.072Z,33.70
2017-08-28T15:50:22.366Z,34.60
2017-08-28T15:52:48.491Z,34.40
2017-08-28T15:55:14.650Z,34.20
2017-08-28T15:57:40.793Z,34.80
2017-08-28T16:00:06.978Z,33.80
2017-08-28T16:02:33.128Z,34.70
2017-08-28T16:04:59.255Z,34.60
2017-08-28T16:07:25.417Z,35.50
2017-08-28T16:09:51.539Z,35.40
2017-08-28T16:12:17.679Z,35.20
2017-08-28T16:14:43.799Z,34.60
2017-08-28T16:17:09.979Z,34.40
2017-08-28T16:19:36.102Z,35.20
2017-08-28T16:22:02.266Z,34.80
2017-08-28T16:24:28.393Z,35.00
2017-08-28T16:26:54.556Z,35.50
2017-08-28T16:29:20.954Z,36.00
2017-08-28T16:31:47.126Z,36.00
2017-08-28T16:34:13.261Z,35.00
2017-08-28T16:36:39.467Z,35.70
2017-08-28T16:39:05.586Z,36.40
2017-08-28T16:41:31.707Z,36.80
2017-08-28T16:43:57.898Z,36.40
2017-08-28T16:46:24.024Z,36.40
2017-08-28T16:48:50.183Z,36.40
2017-08-28T16:51:16.314Z,36.40
2017-08-28T16:53:42.458Z,36.40
2017-08-28T16:56:08.611Z,36.40
2017-08-28T16:58:34.783Z,36.30
2017-08-28T17:01:00.939Z,36.70
2017-08-28T17:03:27.099Z,36.40
2017-08-28T17:05:53.239Z,36.60
2017-08-28T17:08:19.387Z,37.70
2017-08-28T17:10:45.520Z,36.90
2017-08-28T17:13:11.666Z,37.20
2017-08-28T17:15:37.794Z,38.50
2017-08-28T17:18:03.946Z,38.40
2017-08-28T17:20:30.086Z,38.20
2017-08-28T17:22:56.292Z,39.70
2017-08-28T17:25:22.417Z,39.40
2017-08-28T17:27:48.605Z,40.10
2017-08-28T17:30:14.759Z,41.20
2017-08-28T17:32:40.906Z,42.80
2017-08-28T17:35:07.080Z,42.10
2017-08-28T17:37:33.231Z,42.70
2017-08-28T17:39:59.387Z,42.90
2017-08-28T17:42:25.544Z,43.60
2017-08-28T17:44:51.686Z,43.20
2017-08-28T17:47:17.835Z,43.50
2017-08-28T17:49:44.012Z,43.80
2017-08-28T17:52:10.148Z,43.00
2017-08-28T17:54:36.339Z,44.10
2017-08-28T17:57:02.466Z,44.10
2017-08-28T17:59:28.640Z,43.60
2017-08-28T18:01:54.783Z,43.30
2017-08-28T18:04:20.932Z,44.20
2017-08-28T18:06:47.103Z,45.00
2017-08-28T18:09:13.265Z,44.80
2017-08-28T18:11:39.437Z,45.10
2017-08-28T18:14:05.589Z,45.10
2017-08-28T18:16:31.707Z,45.10
2017-08-28T18:18:57.883Z,45.80
2017-08-28T18:21:24.060Z,45.60
2017-08-28T18:23:50.191Z,45.50
2017-08-28T18:26:16.375Z,46.50
2017-08-28T18:28:42.507Z,46.90
2017-08-28T18:31:08.670Z,47.40
2017-08-28T18:33:34.824Z,48.40
2017-08-28T18:36:01.011Z,48.70
2017-08-28T18:38:27.138Z,48.50
2017-08-28T18:40:53.278Z,49.00
2017-08-28T18:43:19.403Z,49.50
2017-08-28T18:45:45.569Z,49.40
2017-08-28T18:48:11.704Z,49.40
2017-08-28T18:50:37.852Z,49.60
2017-08-28T18:53:04.010Z,50.20
2017-08-28T18:55:30.203Z,49.60
2017-08-28T18:57:56.338Z,50.60
2017-08-28T19:00:22.487Z,50.60
2017-08-28T19:02:48.639Z,50.30
2017-08-28T19:05:14.827Z,50.90
2017-08-28T19:07:40.991Z,51.30
2017-08-28T19:10:07.139Z,51.80
2017-08-28T19:12:33.326Z,52.80
2017-08-28T19:14:59.471Z,53.30
2017-08-28T19:17:25.661Z,53.30
2017-08-28T19:19:51.807Z,54.00
2017-08-28T19:22:17.987Z,53.10
2017-08-28T19:24:44.165Z,53.10
2017-08-28T19:27:10.343Z,53.00
2017-08-28T19:29:37.459Z,53.00
2017-08-28T19:32:04.661Z,53.00
2017-08-28T19:34:31.647Z,53.00
2017-08-28T19:36:58.131Z,52.90
2017-08-28T19:41:55.415Z,53.50
2017-08-28T19:44:21.601Z,53.50
2017-08-28T19:46:47.759Z,53.80
2017-08-28T19:49:13.915Z,53.60
2017-08-28T19:51:40.063Z,54.10
2017-08-28T19:54:06.213Z,54.90
2017-08-28T19:56:32.430Z,55.00
2017-08-28T19:58:59.321Z,55.20
2017-08-28T20:01:25.478Z,55.70
2017-08-28T20:03:51.623Z,55.70
2017-08-28T20:06:17.756Z,55.80
2017-08-28T20:08:43.922Z,56.30
2017-08-28T20:11:10.070Z,56.10
2017-08-28T20:13:37.250Z,56.40
2017-08-28T20:16:03.427Z,56.60
2017-08-28T20:18:29.707Z,57.00
2017-08-28T20:20:55.879Z,57.70
2017-08-28T20:23:22.066Z,57.20
2017-08-28T20:25:48.225Z,57.00
2017-08-28T20:28:14.390Z,57.10
2017-08-28T20:30:40.523Z,57.60
2017-08-28T20:33:06.719Z,57.60
2017-08-28T20:35:32.861Z,57.30
2017-08-28T20:37:59.067Z,57.90
2017-08-28T20:40:25.217Z,58.10
2017-08-28T20:42:51.376Z,57.90
2017-08-28T20:45:17.594Z,58.20
2017-08-28T20:47:43.769Z,58.10
2017-08-28T20:50:09.928Z,57.80
2017-08-28T20:52:36.086Z,58.70
2017-08-28T20:55:02.259Z,59.00
2017-08-28T20:57:29.168Z,59.90
2017-08-28T20:59:55.383Z,59.90
2017-08-28T21:02:21.530Z,59.80
2017-08-28T21:04:47.703Z,59.00
2017-08-28T21:07:13.851Z,58.60
2017-08-28T21:09:40.022Z,58.70
2017-08-28T21:12:06.208Z,59.30
2017-08-28T21:14:32.566Z,59.30
2017-08-28T21:16:58.703Z,60.40
2017-08-28T21:19:24.979Z,60.30
2017-08-28T21:21:51.230Z,60.40
2017-08-28T21:24:17.398Z,60.40
2017-08-28T21:26:43.531Z,60.80
2017-08-28T21:29:09.684Z,60.30
2017-08-28T21:31:35.908Z,60.40
2017-08-28T21:34:02.074Z,60.60
2017-08-28T21:36:28.198Z,60.30
2017-08-28T21:38:54.343Z,59.80
2017-08-28T21:41:20.523Z,60.50
2017-08-28T21:43:46.666Z,60.50
2017-08-28T21:46:12.799Z,60.50
2017-08-28T21:48:38.943Z,60.30
2017-08-28T21:51:05.103Z,60.30
2017-08-28T21:53:31.268Z,61.20
2017-08-28T21:55:57.436Z,60.30
2017-08-28T21:58:23.574Z,60.90
2017-08-28T22:00:49.729Z,61.10
2017-08-28T22:03:15.875Z,61.70
2017-08-28T22:05:42.112Z,61.70
2017-08-28T22:08:08.287Z,61.80
2017-08-28T22:10:34.446Z,62.10
2017-08-28T22:13:00.586Z,61.90
2017-08-28T22:15:26.759Z,61.80
2017-08-28T22:17:52.894Z,61.80
2017-08-28T22:20:19.095Z,62.10
2017-08-28T22:22:45.279Z,62.30
2017-08-28T22:25:11.467Z,62.50
2017-08-28T22:27:37.619Z,62.40
2017-08-28T22:30:03.753Z,62.70
2017-08-28T22:32:29.927Z,62.50
2017-08-28T22:34:56.081Z,62.40
2017-08-28T22:37:22.263Z,62.50
2017-08-28T22:39:48.456Z,62.70
2017-08-28T22:42:14.675Z,63.00
2017-08-28T22:44:40.860Z,62.30
2017-08-28T22:47:07.059Z,62.40
2017-08-28T22:49:33.240Z,62.40
2017-08-28T22:51:59.403Z,62.40
2017-08-28T22:54:25.620Z,62.30
2017-08-28T22:56:51.809Z,62.40
2017-08-28T22:59:17.991Z,62.40
2017-08-28T23:01:44.183Z,61.90
2017-08-28T23:04:10.364Z,62.10
2017-08-28T23:06:36.579Z,62.80
2017-08-28T23:09:02.759Z,62.30
2017-08-28T23:11:28.919Z,62.30
2017-08-28T23:13:55.067Z,62.20
2017-08-28T23:16:21.261Z,62.90
2017-08-28T23:18:47.460Z,64.10
2017-08-28T23:21:13.621Z,63.60
2017-08-28T23:23:39.770Z,64.10
2017-08-28T23:26:05.978Z,63.80
2017-08-28T23:28:32.177Z,64.00
2017-08-28T23:30:58.454Z,63.70
2017-08-28T23:33:24.668Z,63.90
2017-08-28T23:35:50.798Z,64.30
2017-08-28T23:38:17.007Z,64.10
2017-08-28T23:40:43.161Z,63.70
2017-08-28T23:43:09.370Z,64.00
2017-08-28T23:45:35.519Z,63.80
2017-08-28T23:48:01.671Z,64.00
2017-08-28T23:50:27.825Z,64.20
2017-08-28T23:52:53.994Z,64.00
2017-08-28T23:55:20.138Z,63.80
2017-08-28T23:57:46.294Z,64.00
